createdAt,value
2018-04-19T00:10:18.401Z,3.13
2018-04-19T00:15:12.864Z,3.10
2018-04-19T00:20:08.087Z,3.60
2018-04-19T00:25:03.218Z,3.13
2018-04-19T00:29:57.575Z,3.07
2018-04-19T00:34:51.950Z,3.40
2018-04-19T00:39:46.319Z,3.60
2018-04-19T00:44:41.459Z,3.80
2018-04-19T00:49:35.841Z,3.87
2018-04-19T00:54:31.159Z,4.30
2018-04-19T00:59:26.303Z,3.80
2018-04-19T01:04:21.763Z,4.07
2018-04-19T01:09:16.149Z,4.00
2018-04-19T01:14:10.511Z,4.00
2018-04-19T01:19:05.648Z,3.67
2018-04-19T01:24:00.027Z,3.90
2018-04-19T01:28:54.581Z,3.80
2018-04-19T01:33:49.059Z,4.00
2018-04-19T01:38:43.465Z,4.17
2018-04-19T01:43:37.768Z,3.90
2018-04-19T01:48:32.175Z,3.87
2018-04-19T01:53:26.541Z,4.17
2018-04-19T01:58:21.053Z,4.10
2018-04-19T02:03:16.185Z,4.43
2018-04-19T02:08:11.309Z,4.27
2018-04-19T02:13:06.510Z,4.10
2018-04-19T02:18:01.112Z,4.00
2018-04-19T02:22:55.476Z,3.63
2018-04-19T02:27:49.851Z,3.83
2018-04-19T02:32:43.988Z,3.70
2018-04-19T02:37:38.346Z,4.00
2018-04-19T02:42:32.702Z,3.93
2018-04-19T02:47:27.064Z,3.73
2018-04-19T02:52:21.839Z,3.70
2018-04-19T02:57:16.245Z,3.80
2018-04-19T03:02:10.874Z,3.20
2018-04-19T03:07:06.194Z,3.77
2018-04-19T03:12:01.322Z,3.77
2018-04-19T03:16:56.694Z,3.40
2018-04-19T03:21:51.101Z,3.87
2018-04-19T03:26:46.385Z,3.63
2018-04-19T03:31:40.888Z,3.67
2018-04-19T03:36:35.263Z,3.73
2018-04-19T03:41:30.397Z,4.03
2018-04-19T03:46:25.508Z,3.70
2018-04-19T03:51:20.645Z,3.60
2018-04-19T03:56:15.897Z,3.97
2018-04-19T04:01:10.335Z,3.93
2018-04-19T04:06:05.596Z,4.00
2018-04-19T04:10:59.962Z,3.73
2018-04-19T04:15:54.335Z,4.20
2018-04-19T04:21:05.717Z,3.83
2018-04-19T04:26:00.089Z,4.10
2018-04-19T04:30:55.227Z,4.20
2018-04-19T04:35:49.603Z,3.67
2018-04-19T04:40:44.054Z,3.87
2018-04-19T04:45:38.423Z,3.97
2018-04-19T04:50:33.408Z,4.57
2018-04-19T04:55:27.761Z,4.10
2018-04-19T05:00:22.121Z,4.60
2018-04-19T05:05:16.585Z,4.07
2018-04-19T05:10:11.149Z,4.10
2018-04-19T05:15:06.460Z,4.50
2018-04-19T05:20:02.277Z,4.20
2018-04-19T05:24:56.783Z,4.23
2018-04-19T05:29:51.171Z,4.50
2018-04-19T05:34:45.545Z,4.80
2018-04-19T05:39:39.908Z,4.23
2018-04-19T05:44:34.482Z,4.23
2018-04-19T05:49:28.921Z,4.67
2018-04-19T05:54:23.554Z,4.47
2018-04-19T05:59:17.860Z,4.17
2018-04-19T06:04:13.115Z,3.93
2018-04-19T06:09:07.060Z,3.67
2018-04-19T06:14:02.449Z,3.60
2018-04-19T06:18:56.824Z,3.57
2018-04-19T06:23:51.208Z,3.30
2018-04-19T06:28:46.394Z,3.70
2018-04-19T06:33:40.910Z,3.70
2018-04-19T06:38:35.599Z,3.30
2018-04-19T06:43:30.307Z,3.10
2018-04-19T06:48:24.965Z,3.20
2018-04-19T06:53:19.625Z,3.30
2018-04-19T06:58:14.255Z,3.33
2018-04-19T07:03:08.930Z,3.33
2018-04-19T07:08:04.348Z,3.63
2018-04-19T07:12:59.772Z,3.20
2018-04-19T07:17:55.229Z,3.40
2018-04-19T07:22:49.980Z,3.00
2018-04-19T07:27:44.407Z,3.27
2018-04-19T07:32:39.049Z,3.80
2018-04-19T07:37:33.709Z,3.00
2018-04-19T07:42:28.360Z,2.97
2018-04-19T07:47:23.080Z,3.33
2018-04-19T07:52:17.794Z,3.50
2018-04-19T07:57:12.918Z,2.90
2018-04-19T08:02:07.569Z,3.33
2018-04-19T08:07:02.223Z,2.97
2018-04-19T08:11:57.762Z,2.63
2018-04-19T08:16:52.400Z,2.90
2018-04-19T08:21:47.066Z,2.77
2018-04-19T08:26:41.689Z,2.60
2018-04-19T08:31:36.337Z,2.80
2018-04-19T08:36:31.001Z,3.00
2018-04-19T08:41:25.407Z,3.00
2018-04-19T08:46:20.067Z,3.20
2018-04-19T08:51:14.818Z,3.17
2018-04-19T08:56:09.453Z,3.33
2018-04-19T09:01:04.104Z,2.97
2018-04-19T09:05:58.736Z,3.03
2018-04-19T09:10:54.441Z,3.30
2018-04-19T09:15:49.553Z,3.47
2018-04-19T09:20:44.344Z,3.10
2018-04-19T09:25:39.099Z,3.37
2018-04-19T09:30:34.493Z,3.00
2018-04-19T09:35:28.931Z,2.93
2018-04-19T09:40:24.665Z,3.37
2018-04-19T09:45:19.337Z,3.60
2018-04-19T09:50:14.305Z,3.30
2018-04-19T09:55:09.728Z,3.10
2018-04-19T10:00:04.647Z,3.17
2018-04-19T10:05:02.628Z,3.20
2018-04-19T10:09:58.071Z,3.40
2018-04-19T10:14:52.771Z,3.30
2018-04-19T10:19:47.128Z,3.30
2018-04-19T10:24:42.279Z,3.37
2018-04-19T10:29:36.680Z,3.40
2018-04-19T10:34:30.874Z,3.60
2018-04-19T10:39:25.025Z,3.40
2018-04-19T10:44:20.245Z,3.17
2018-04-19T10:49:14.657Z,3.40
2018-04-19T10:54:09.046Z,3.47
2018-04-19T10:59:03.676Z,3.03
2018-04-19T11:03:58.049Z,3.30
2018-04-19T11:08:52.432Z,3.13
2018-04-19T11:13:47.046Z,2.73
2018-04-19T11:18:41.439Z,2.93
2018-04-19T11:23:36.082Z,2.90
2018-04-19T11:28:30.458Z,3.10
2018-04-19T11:33:24.891Z,2.70
2018-04-19T11:38:19.472Z,3.27
2018-04-19T11:43:14.483Z,2.57
2018-04-19T11:48:08.861Z,2.53
2018-04-19T11:53:03.250Z,3.10
2018-04-19T11:57:58.408Z,2.80
2018-04-19T12:02:52.835Z,2.77
2018-04-19T12:07:47.222Z,2.60
2018-04-19T12:12:41.609Z,2.77
2018-04-19T12:17:35.975Z,2.27
2018-04-19T12:22:31.134Z,2.77
2018-04-19T12:27:25.509Z,2.30
2018-04-19T12:32:20.433Z,2.37
2018-04-19T12:37:15.761Z,2.83
2018-04-19T12:42:11.137Z,2.50
2018-04-19T12:47:05.524Z,2.57
2018-04-19T12:51:59.917Z,2.20
2018-04-19T12:56:54.326Z,2.00
2018-04-19T13:01:48.702Z,3.00
2018-04-19T13:06:43.276Z,2.20
2018-04-19T13:11:37.651Z,2.37
2018-04-19T13:16:32.962Z,2.83
2018-04-19T13:21:27.488Z,2.50
2018-04-19T13:26:21.894Z,2.60
2018-04-19T13:31:16.398Z,2.43
2018-04-19T13:36:10.985Z,2.20
2018-04-19T13:41:05.361Z,2.30
2018-04-19T13:45:59.484Z,2.47
2018-04-19T13:50:53.868Z,2.80
2018-04-19T13:55:48.257Z,2.70
2018-04-19T14:00:42.673Z,2.50
2018-04-19T14:05:36.987Z,2.67
2018-04-19T14:10:31.386Z,2.57
2018-04-19T14:15:25.775Z,2.60
2018-04-19T14:20:20.178Z,2.77
2018-04-19T14:25:14.610Z,2.60
2018-04-19T14:30:09.468Z,2.73
2018-04-19T14:35:05.698Z,2.70
2018-04-19T14:40:00.315Z,2.57
2018-04-19T14:44:54.686Z,2.30
2018-04-19T14:49:49.084Z,2.30
2018-04-19T14:54:43.722Z,2.67
2018-04-19T14:59:38.211Z,2.33
2018-04-19T15:04:32.682Z,2.80
2018-04-19T15:09:26.811Z,2.40
2018-04-19T15:14:21.345Z,2.50
2018-04-19T15:19:15.747Z,2.70
2018-04-19T15:24:10.111Z,2.27
2018-04-19T15:29:04.262Z,2.40
2018-04-19T15:33:59.181Z,2.50
2018-04-19T15:38:54.305Z,2.47
2018-04-19T15:43:49.654Z,2.20
2018-04-19T15:48:44.216Z,2.30
2018-04-19T15:53:40.021Z,2.37
2018-04-19T15:58:35.323Z,2.53
2018-04-19T16:03:30.917Z,2.30
2018-04-19T16:08:26.246Z,2.63
2018-04-19T16:13:20.567Z,2.50
2018-04-19T16:18:15.374Z,2.60
2018-04-19T16:23:10.492Z,2.40
2018-04-19T16:28:05.768Z,2.60
2018-04-19T16:33:00.173Z,2.13
2018-04-19T16:37:54.289Z,2.60
2018-04-19T16:42:49.247Z,2.50
2018-04-19T16:47:43.589Z,2.47
2018-04-19T16:52:38.070Z,2.13
2018-04-19T16:57:32.416Z,2.23
2018-04-19T17:02:27.393Z,2.50
2018-04-19T17:07:21.791Z,2.90
2018-04-19T17:12:16.081Z,3.10
2018-04-19T17:17:10.223Z,2.83
2018-04-19T17:22:05.050Z,2.37
2018-04-19T17:26:59.443Z,3.27
2018-04-19T17:31:54.153Z,2.80
2018-04-19T17:42:10.982Z,3.27
2018-04-19T17:47:05.358Z,2.80
2018-04-19T17:52:01.503Z,3.20
2018-04-19T17:56:56.109Z,2.70
2018-04-19T18:01:50.638Z,3.30
2018-04-19T18:06:45.328Z,2.80
2018-04-19T18:11:39.475Z,3.37
2018-04-19T18:16:33.873Z,3.43
2018-04-19T18:21:28.295Z,3.20
2018-04-19T18:26:22.673Z,3.27
2018-04-19T18:31:17.028Z,4.27
2018-04-19T18:36:12.203Z,3.90
2018-04-19T18:41:06.533Z,4.70
2018-04-19T18:46:00.880Z,4.00
2018-04-19T18:50:55.433Z,4.00
2018-04-19T18:55:49.806Z,3.80
2018-04-19T19:00:44.370Z,3.93
2018-04-19T19:05:38.772Z,4.20
2018-04-19T19:10:33.726Z,3.20
2018-04-19T19:31:32.671Z,4.93
2018-04-19T19:36:28.140Z,4.17
2018-04-19T19:41:22.736Z,4.23
2018-04-19T19:46:17.094Z,3.40
2018-04-19T19:51:12.231Z,4.13
2018-04-19T19:56:07.144Z,4.50
2018-04-19T20:01:02.559Z,4.37
2018-04-19T20:05:56.949Z,4.27
2018-04-19T20:10:51.416Z,4.67
2018-04-19T20:15:45.773Z,4.00
2018-04-19T20:20:40.899Z,4.53
2018-04-19T20:25:36.058Z,4.83
2018-04-19T20:30:30.401Z,4.77
2018-04-19T20:35:24.790Z,4.00
2018-04-19T20:40:19.252Z,4.20
2018-04-19T20:45:13.640Z,4.20
2018-04-19T20:50:08.203Z,4.77
2018-04-19T20:55:02.607Z,4.70
2018-04-19T20:59:57.288Z,4.43
2018-04-19T21:04:51.813Z,4.53
2018-04-19T21:09:46.031Z,4.27
2018-04-19T21:14:41.242Z,3.80
2018-04-19T21:19:35.377Z,4.10
2018-04-19T21:24:30.514Z,3.90
2018-04-19T21:29:25.716Z,3.63
2018-04-19T21:34:21.129Z,3.80
2018-04-19T21:39:15.556Z,3.50
2018-04-19T21:44:10.731Z,3.70
2018-04-19T21:49:04.914Z,3.70
2018-04-19T21:53:59.313Z,4.00
2018-04-19T21:58:53.725Z,3.77
2018-04-19T22:03:48.204Z,3.60
2018-04-19T22:08:42.560Z,3.13
2018-04-19T22:13:36.922Z,3.87
2018-04-19T22:18:31.283Z,3.13
2018-04-19T22:23:25.644Z,3.27
2018-04-19T22:28:19.974Z,3.43
2018-04-19T22:33:14.371Z,4.13
2018-04-19T22:38:08.726Z,3.20
2018-04-19T22:43:03.068Z,3.63
2018-04-19T22:47:57.419Z,3.70
2018-04-19T22:52:51.841Z,3.53
2018-04-19T22:57:46.189Z,3.53
2018-04-19T23:02:40.673Z,3.43
2018-04-19T23:07:35.050Z,3.20
2018-04-19T23:12:29.177Z,3.87
2018-04-19T23:17:23.522Z,3.70
2018-04-19T23:22:17.152Z,3.23
2018-04-19T23:27:12.530Z,3.20
2018-04-19T23:32:07.663Z,3.33
2018-04-19T23:37:02.796Z,3.17
2018-04-19T23:41:57.413Z,3.17
2018-04-19T23:46:51.945Z,3.30
2018-04-19T23:51:46.450Z,3.10
2018-04-19T23:56:40.849Z,3.23
